Accueil
METAR-TAF:

METAR-TAF

Aéroports :

Aéroport de Gênes-Christophe Colomb

Gênes, Italie

latitude: 44-25N, longitude: 008-51E, altitude: 2 m

Observation

Le bulletin a été fait il y a 21 minutes, à 17:20 UTC
Vent 19 kt de nord/nord-est
Température 5°C
Humidité 81%
Pression 996 hPa
Visibilité 10 km ou plus
Ciel couvert à une hauteur de 2800 ft
pluie faible

METAR: LIMJ 051720Z 03019KT 9999 -RA OVC028 05/02 Q0996

Heure: 18:41 (17:41 UTC)

Prévision

Le bulletin a été fait il y a 41 minutes, à 17:00 UTC
Prévision valable du 05 à 18 UTC au 06 à 18 UTC
Vent 18 kt de nord/nord-est
Visibilité: 8000 m
Nuages fragmentés à une hauteur de 4000 ft
Temporairement
du 05 à 18 UTC au 06 à 01 UTC
Nuages fragmentés à une hauteur de 1000 ft
pluie

TAF: LIMJ 051700Z 0518/0618 03018KT 8000 BKN040 TEMPO 0518/0601 RA BKN010

Observations et prévisions météorologiques de plus de 4000 aéroports (messages METAR et TAF).

Les stations disponibles sont représentées par des disques jaunes et rouges sur la carte.

Passer la souris dessus pour voir le nom de la station.

Cliquer dessus pour voir les observations et prévisions météorologiques.

Pour changer de carte: cliquez sur les boutons verts avec une croix noire pour zoomer, sur le bouton vert avec un tiret pour effectuer un zoom arrière, ou sur les flèches vertes pour les cartes adjacentes.


METAR-TAF: